Flight Track Log - Related Links

Times and Time Zones

All times are in EDT time to prevent confusion due to time zone crossing. See the SVA1444 flight status page for this flight to view local times or setup timezone preferences in your user account.


Time Position Orientation Groundspeed Altitude Reporting Facility
EDT Latitude Longitude Course Direction KTS MPH feet Rate Location/Type
Sun 11:07:00 AM 24.5995 40.2858 85° East  Level Estimated
Sun 11:08:00 AM 24.6084 40.4020 85° East  Level Estimated
Sun 11:09:00 AM 24.6173 40.5182 85° East  Level Estimated
Sun 11:10:00 AM 24.6260 40.6344 85° East  Level Estimated
Sun 11:11:00 AM 24.6347 40.7507 85° East  Level Estimated
Sun 11:12:00 AM 24.6433 40.8669 85° East  Level Estimated
Sun 11:13:00 AM 24.6518 40.9832 85° East  Level Estimated
Sun 11:14:00 AM 24.6602 41.0995 85° East  Level Estimated
Sun 11:15:00 AM 24.6685 41.2158 85° East  Level Estimated
Sun 11:16:00 AM 24.6767 41.3321 86° East  Level Estimated
Sun 11:17:00 AM 24.6849 41.4485 86° East  Level Estimated
Sun 11:18:00 AM 24.6929 41.5648 86° East  Level Estimated
Sun 11:19:00 AM 24.7008 41.6812 86° East  Level Estimated
Sun 11:20:00 AM 24.7087 41.7976 86° East  Level Estimated
Sun 11:21:00 AM 24.7165 41.9140 86° East  Level Estimated
Sun 11:22:00 AM 24.7242 42.0304 86° East  Level Estimated
Sun 11:23:00 AM 24.7318 42.1468 86° East  Level Estimated
Sun 11:24:00 AM 24.7393 42.2632 86° East  Level Estimated
Sun 11:25:00 AM 24.7467 42.3797 86° East  Level Estimated
Sun 11:26:00 AM 24.7540 42.4962 86° East  Level Estimated
Sun 11:27:00 AM 24.7613 42.6126 86° East  Level Estimated
Sun 11:28:00 AM 24.7684 42.7291 86° East  Level Estimated
Sun 11:29:00 AM 24.7755 42.8456 86° East  Level Estimated
Sun 11:30:00 AM 24.7824 42.9622 86° East  Level Estimated
Sun 11:31:00 AM 24.7893 43.0787 86° East  Level Estimated
Sun 11:32:00 AM 24.7961 43.1953 86° East  Level Estimated
Sun 11:33:00 AM 24.8028 43.3118 86° East  Level Estimated
Sun 11:34:00 AM 24.8094 43.4284 86° East  Level Estimated
Sun 11:35:00 AM 24.8159 43.5450 86° East  Level Estimated
Sun 11:36:00 AM 24.8223 43.6616 87° East  Level Estimated
Sun 11:37:00 AM 24.8287 43.7782 87° East  Level Estimated
Sun 11:38:00 AM 24.8349 43.8948 87° East  Level Estimated
Sun 11:39:00 AM 24.8411 44.0114 87° East  Level Estimated
Sun 11:40:00 AM 24.8471 44.1281 87° East  Level Estimated
Sun 11:41:00 AM 24.8531 44.2447 87° East  Level Estimated
Sun 11:42:00 AM 24.8590 44.3614 87° East  Level Estimated
Sun 11:43:00 AM 24.8648 44.4781 87° East  Level Estimated
Sun 11:44:00 AM 24.8705 44.5948 87° East  Level Estimated
Sun 11:45:00 AM 24.8761 44.7115 87° East  Level Estimated
Sun 11:46:00 AM 24.8816 44.8282 87° East  Level Estimated
Sun 11:47:00 AM 24.8871 44.9449 87° East  Level Estimated
Sun 11:48:00 AM 24.8924 45.0616 87° East  Level Estimated
Sun 11:49:00 AM 24.8976 45.1784 87° East  Level Estimated
Sun 11:50:00 AM 24.9028 45.2951 87° East  Level Estimated
Sun 11:51:00 AM 24.9079 45.4119 87° East  Level Estimated
Sun 11:52:00 AM 24.9128 45.5286 87° East  Level Estimated
Sun 11:53:00 AM 24.9177 45.6454 87° East  Level Estimated
Sun 11:54:00 AM 24.9225 45.7622 87° East  Level Estimated
Sun 11:55:00 AM 24.9272 45.8790 87° East  Level Estimated
Sun 11:56:00 AM 24.9318 45.9958 87° East  Level Estimated
Sun 11:57:00 AM 24.9363 46.1126 88° East  Level Estimated
Sun 11:58:00 AM 24.9408 46.2295 88° East  Level Estimated
Sun 11:59:00 AM 24.9451 46.3463 88° East  Level Estimated
Sun 12:00:00 PM 24.9494 46.4631 88° East  Level Estimated
Sun 12:01:00 PM 24.9535 46.5800 88° East  Level Estimated
Sun 12:02:00 PM 24.9576 46.6968 88° East  Level Estimated
Sun 12:03:00 PM 24.9576 46.6988 88° East  Level Estimated
Sun 12:04:00 PM 24.9576 46.6988 North  Level Estimated
Sun 12:05:00 PM 24.9576 46.6988 North  Level Estimated
Sun 12:06:00 PM 24.9576 46.6988 North  Level Estimated
Sun 12:07:00 PM 24.9576 46.6988 North  Level Estimated
Sun 12:08:00 PM 24.9576 46.6988 North  Level Estimated
Sun 12:09:00 PM 24.9576 46.6988 North  Level Estimated
Sun 12:10:00 PM 24.9576 46.6988 North  Level Estimated
Sun 12:11:00 PM 24.9576 46.6988 North  Level Estimated

Login

Don't have an account? Register now (free) for customized features, flight alerts, and more!